sensor_id;sensor_type;location;lat;lon;timestamp;P1;durP1;ratioP1;P2;durP2;ratioP2
3867;SDS011;1949;48.152;11.528;2023-04-03T00:01:09;10.20;;;4.60;;
3867;SDS011;1949;48.152;11.528;2023-04-03T00:03:36;5.03;;;3.73;;
3867;SDS011;1949;48.152;11.528;2023-04-03T00:06:02;8.33;;;3.90;;
3867;SDS011;1949;48.152;11.528;2023-04-03T00:08:34;8.63;;;3.97;;
3867;SDS011;1949;48.152;11.528;2023-04-03T00:11:02;7.60;;;4.70;;
3867;SDS011;1949;48.152;11.528;2023-04-03T00:13:33;9.17;;;3.53;;
3867;SDS011;1949;48.152;11.528;2023-04-03T00:18:30;7.73;;;4.10;;
3867;SDS011;1949;48.152;11.528;2023-04-03T00:20:57;7.20;;;3.70;;
3867;SDS011;1949;48.152;11.528;2023-04-03T00:23:23;7.27;;;4.00;;
3867;SDS011;1949;48.152;11.528;2023-04-03T00:25:49;6.43;;;3.83;;
3867;SDS011;1949;48.152;11.528;2023-04-03T00:28:16;4.40;;;3.53;;
3867;SDS011;1949;48.152;11.528;2023-04-03T00:30:42;4.70;;;3.10;;
3867;SDS011;1949;48.152;11.528;2023-04-03T00:33:09;7.00;;;3.90;;
3867;SDS011;1949;48.152;11.528;2023-04-03T00:35:37;5.13;;;3.60;;
3867;SDS011;1949;48.152;11.528;2023-04-03T00:38:03;6.00;;;3.40;;
3867;SDS011;1949;48.152;11.528;2023-04-03T00:40:32;6.80;;;4.53;;
3867;SDS011;1949;48.152;11.528;2023-04-03T00:45:58;8.17;;;3.50;;
3867;SDS011;1949;48.152;11.528;2023-04-03T00:48:38;8.03;;;3.87;;
3867;SDS011;1949;48.152;11.528;2023-04-03T00:51:14;5.30;;;3.47;;
3867;SDS011;1949;48.152;11.528;2023-04-03T00:53:47;3.80;;;3.40;;
3867;SDS011;1949;48.152;11.528;2023-04-03T00:56:17;5.20;;;3.60;;
3867;SDS011;1949;48.152;11.528;2023-04-03T00:58:48;4.87;;;2.93;;
3867;SDS011;1949;48.152;11.528;2023-04-03T01:01:26;3.53;;;2.50;;
3867;SDS011;1949;48.152;11.528;2023-04-03T01:03:56;3.83;;;2.93;;
3867;SDS011;1949;48.152;11.528;2023-04-03T01:06:25;4.07;;;3.00;;
3867;SDS011;1949;48.152;11.528;2023-04-03T01:08:54;6.70;;;3.50;;
3867;SDS011;1949;48.152;11.528;2023-04-03T01:11:21;4.50;;;3.07;;
3867;SDS011;1949;48.152;11.528;2023-04-03T01:13:47;5.33;;;3.50;;
3867;SDS011;1949;48.152;11.528;2023-04-03T01:16:13;4.37;;;3.03;;
3867;SDS011;1949;48.152;11.528;2023-04-03T01:18:40;4.93;;;2.83;;
3867;SDS011;1949;48.152;11.528;2023-04-03T01:21:14;5.50;;;3.30;;
3867;SDS011;1949;48.152;11.528;2023-04-03T01:23:58;6.70;;;2.97;;
3867;SDS011;1949;48.152;11.528;2023-04-03T01:26:28;4.73;;;3.20;;
3867;SDS011;1949;48.152;11.528;2023-04-03T01:28:56;4.60;;;2.73;;
3867;SDS011;1949;48.152;11.528;2023-04-03T01:34:19;9.87;;;3.67;;
3867;SDS011;1949;48.152;11.528;2023-04-03T01:36:45;8.50;;;3.10;;
3867;SDS011;1949;48.152;11.528;2023-04-03T01:39:12;6.40;;;3.80;;
3867;SDS011;1949;48.152;11.528;2023-04-03T01:41:38;6.53;;;3.37;;
3867;SDS011;1949;48.152;11.528;2023-04-03T01:44:06;4.63;;;2.90;;
3867;SDS011;1949;48.152;11.528;2023-04-03T01:46:31;6.43;;;3.40;;
3867;SDS011;1949;48.152;11.528;2023-04-03T01:51:26;4.30;;;3.13;;
3867;SDS011;1949;48.152;11.528;2023-04-03T01:53:52;4.30;;;3.10;;
3867;SDS011;1949;48.152;11.528;2023-04-03T01:56:19;5.10;;;3.03;;
3867;SDS011;1949;48.152;11.528;2023-04-03T01:58:47;4.67;;;3.00;;
3867;SDS011;1949;48.152;11.528;2023-04-03T02:01:14;5.33;;;3.33;;
3867;SDS011;1949;48.152;11.528;2023-04-03T02:03:44;5.30;;;2.93;;
3867;SDS011;1949;48.152;11.528;2023-04-03T02:06:09;6.43;;;3.03;;
3867;SDS011;1949;48.152;11.528;2023-04-03T02:08:35;3.97;;;3.20;;
3867;SDS011;1949;48.152;11.528;2023-04-03T02:11:03;4.53;;;2.73;;
3867;SDS011;1949;48.152;11.528;2023-04-03T02:13:29;2.90;;;2.37;;
3867;SDS011;1949;48.152;11.528;2023-04-03T02:15:55;5.83;;;3.20;;
3867;SDS011;1949;48.152;11.528;2023-04-03T02:18:21;6.17;;;3.47;;
3867;SDS011;1949;48.152;11.528;2023-04-03T02:20:47;3.73;;;2.60;;
3867;SDS011;1949;48.152;11.528;2023-04-03T02:23:12;4.87;;;2.50;;
3867;SDS011;1949;48.152;11.528;2023-04-03T02:25:40;3.47;;;2.20;;
3867;SDS011;1949;48.152;11.528;2023-04-03T02:28:06;4.00;;;2.83;;
3867;SDS011;1949;48.152;11.528;2023-04-03T02:30:32;3.90;;;3.00;;
3867;SDS011;1949;48.152;11.528;2023-04-03T02:32:57;5.13;;;2.50;;
3867;SDS011;1949;48.152;11.528;2023-04-03T02:35:23;3.90;;;2.67;;
3867;SDS011;1949;48.152;11.528;2023-04-03T02:37:49;4.80;;;3.20;;
3867;SDS011;1949;48.152;11.528;2023-04-03T02:40:16;4.40;;;3.00;;
3867;SDS011;1949;48.152;11.528;2023-04-03T02:42:41;3.20;;;2.10;;
3867;SDS011;1949;48.152;11.528;2023-04-03T02:45:07;2.97;;;2.40;;
3867;SDS011;1949;48.152;11.528;2023-04-03T02:47:33;4.33;;;2.73;;
3867;SDS011;1949;48.152;11.528;2023-04-03T02:49:59;3.03;;;2.43;;
3867;SDS011;1949;48.152;11.528;2023-04-03T02:52:24;9.17;;;3.13;;
3867;SDS011;1949;48.152;11.528;2023-04-03T02:54:51;4.37;;;3.00;;
3867;SDS011;1949;48.152;11.528;2023-04-03T02:57:17;3.40;;;2.40;;
3867;SDS011;1949;48.152;11.528;2023-04-03T02:59:43;4.53;;;2.80;;
3867;SDS011;1949;48.152;11.528;2023-04-03T03:02:09;6.97;;;2.50;;
3867;SDS011;1949;48.152;11.528;2023-04-03T03:04:37;4.00;;;2.30;;
3867;SDS011;1949;48.152;11.528;2023-04-03T03:07:05;4.20;;;2.80;;
3867;SDS011;1949;48.152;11.528;2023-04-03T03:09:31;3.70;;;2.97;;
3867;SDS011;1949;48.152;11.528;2023-04-03T03:11:56;3.23;;;2.57;;
3867;SDS011;1949;48.152;11.528;2023-04-03T03:14:22;3.27;;;2.50;;
3867;SDS011;1949;48.152;11.528;2023-04-03T03:16:48;5.93;;;2.60;;
3867;SDS011;1949;48.152;11.528;2023-04-03T03:19:14;2.97;;;2.50;;
3867;SDS011;1949;48.152;11.528;2023-04-03T03:21:40;7.70;;;2.80;;
3867;SDS011;1949;48.152;11.528;2023-04-03T03:24:07;3.33;;;2.47;;
3867;SDS011;1949;48.152;11.528;2023-04-03T03:26:32;2.40;;;2.20;;
3867;SDS011;1949;48.152;11.528;2023-04-03T03:28:59;4.20;;;2.40;;
3867;SDS011;1949;48.152;11.528;2023-04-03T03:31:25;4.20;;;2.67;;
3867;SDS011;1949;48.152;11.528;2023-04-03T03:33:52;3.00;;;2.47;;
3867;SDS011;1949;48.152;11.528;2023-04-03T03:36:17;3.87;;;2.80;;
3867;SDS011;1949;48.152;11.528;2023-04-03T03:38:43;4.23;;;2.60;;
3867;SDS011;1949;48.152;11.528;2023-04-03T03:41:10;9.00;;;2.73;;
3867;SDS011;1949;48.152;11.528;2023-04-03T03:43:37;6.30;;;2.67;;
3867;SDS011;1949;48.152;11.528;2023-04-03T03:46:03;2.60;;;2.03;;
3867;SDS011;1949;48.152;11.528;2023-04-03T03:48:33;2.83;;;2.20;;
3867;SDS011;1949;48.152;11.528;2023-04-03T03:50:59;3.93;;;2.33;;
3867;SDS011;1949;48.152;11.528;2023-04-03T03:53:27;4.87;;;2.80;;
3867;SDS011;1949;48.152;11.528;2023-04-03T03:55:53;2.20;;;2.00;;
3867;SDS011;1949;48.152;11.528;2023-04-03T03:58:19;3.33;;;2.40;;
3867;SDS011;1949;48.152;11.528;2023-04-03T04:00:45;3.17;;;2.50;;
3867;SDS011;1949;48.152;11.528;2023-04-03T04:03:11;2.90;;;2.30;;
3867;SDS011;1949;48.152;11.528;2023-04-03T04:08:07;5.13;;;2.50;;
3867;SDS011;1949;48.152;11.528;2023-04-03T04:10:33;2.03;;;1.87;;
3867;SDS011;1949;48.152;11.528;2023-04-03T04:13:01;3.33;;;2.30;;
3867;SDS011;1949;48.152;11.528;2023-04-03T04:15:27;7.73;;;2.40;;
3867;SDS011;1949;48.152;11.528;2023-04-03T04:17:52;5.83;;;2.83;;
3867;SDS011;1949;48.152;11.528;2023-04-03T04:20:19;3.30;;;2.53;;
3867;SDS011;1949;48.152;11.528;2023-04-03T04:22:47;6.90;;;3.00;;
3867;SDS011;1949;48.152;11.528;2023-04-03T04:25:13;3.73;;;2.30;;
3867;SDS011;1949;48.152;11.528;2023-04-03T04:27:39;7.20;;;3.17;;
3867;SDS011;1949;48.152;11.528;2023-04-03T04:30:05;5.27;;;3.10;;
3867;SDS011;1949;48.152;11.528;2023-04-03T04:32:32;4.30;;;2.70;;
3867;SDS011;1949;48.152;11.528;2023-04-03T04:34:57;7.30;;;3.33;;
3867;SDS011;1949;48.152;11.528;2023-04-03T04:37:25;4.43;;;3.60;;
3867;SDS011;1949;48.152;11.528;2023-04-03T04:39:51;3.00;;;2.30;;
3867;SDS011;1949;48.152;11.528;2023-04-03T04:42:16;4.17;;;2.83;;
3867;SDS011;1949;48.152;11.528;2023-04-03T04:44:42;7.70;;;4.10;;
3867;SDS011;1949;48.152;11.528;2023-04-03T04:47:08;6.63;;;3.53;;
3867;SDS011;1949;48.152;11.528;2023-04-03T04:49:35;7.87;;;4.30;;
3867;SDS011;1949;48.152;11.528;2023-04-03T04:52:01;14.90;;;6.80;;
3867;SDS011;1949;48.152;11.528;2023-04-03T04:54:26;15.87;;;7.23;;
3867;SDS011;1949;48.152;11.528;2023-04-03T04:56:52;7.70;;;4.30;;
3867;SDS011;1949;48.152;11.528;2023-04-03T04:59:18;9.30;;;4.90;;
3867;SDS011;1949;48.152;11.528;2023-04-03T05:01:43;27.57;;;5.20;;
3867;SDS011;1949;48.152;11.528;2023-04-03T05:04:09;44.17;;;6.30;;
3867;SDS011;1949;48.152;11.528;2023-04-03T05:06:37;9.40;;;4.37;;
3867;SDS011;1949;48.152;11.528;2023-04-03T05:09:03;24.50;;;10.67;;
3867;SDS011;1949;48.152;11.528;2023-04-03T05:11:29;20.13;;;10.20;;
3867;SDS011;1949;48.152;11.528;2023-04-03T05:13:55;29.13;;;12.10;;
3867;SDS011;1949;48.152;11.528;2023-04-03T05:16:22;20.73;;;9.90;;
3867;SDS011;1949;48.152;11.528;2023-04-03T05:18:47;26.13;;;10.33;;
3867;SDS011;1949;48.152;11.528;2023-04-03T05:21:13;22.40;;;8.57;;
3867;SDS011;1949;48.152;11.528;2023-04-03T05:23:39;14.33;;;7.00;;
3867;SDS011;1949;48.152;11.528;2023-04-03T05:26:05;20.93;;;7.97;;
3867;SDS011;1949;48.152;11.528;2023-04-03T05:28:32;21.57;;;7.00;;
3867;SDS011;1949;48.152;11.528;2023-04-03T05:30:58;12.00;;;5.37;;
3867;SDS011;1949;48.152;11.528;2023-04-03T05:33:24;28.03;;;9.70;;
3867;SDS011;1949;48.152;11.528;2023-04-03T05:35:52;24.07;;;10.77;;
3867;SDS011;1949;48.152;11.528;2023-04-03T05:38:18;17.20;;;6.87;;
3867;SDS011;1949;48.152;11.528;2023-04-03T05:40:48;12.93;;;6.70;;
3867;SDS011;1949;48.152;11.528;2023-04-03T05:45:42;33.13;;;14.37;;
3867;SDS011;1949;48.152;11.528;2023-04-03T05:48:08;12.67;;;5.87;;
3867;SDS011;1949;48.152;11.528;2023-04-03T05:50:34;6.73;;;4.07;;
3867;SDS011;1949;48.152;11.528;2023-04-03T05:52:59;8.20;;;3.90;;
3867;SDS011;1949;48.152;11.528;2023-04-03T05:55:28;9.40;;;5.00;;
3867;SDS011;1949;48.152;11.528;2023-04-03T05:57:54;11.50;;;5.10;;
3867;SDS011;1949;48.152;11.528;2023-04-03T06:00:21;8.50;;;4.20;;
3867;SDS011;1949;48.152;11.528;2023-04-03T06:02:47;12.73;;;6.10;;
3867;SDS011;1949;48.152;11.528;2023-04-03T06:05:13;98.37;;;38.07;;
3867;SDS011;1949;48.152;11.528;2023-04-03T06:07:40;32.70;;;15.73;;
3867;SDS011;1949;48.152;11.528;2023-04-03T06:10:06;22.97;;;11.00;;
3867;SDS011;1949;48.152;11.528;2023-04-03T06:12:32;21.77;;;9.47;;
3867;SDS011;1949;48.152;11.528;2023-04-03T06:14:59;10.00;;;5.10;;
3867;SDS011;1949;48.152;11.528;2023-04-03T06:17:25;17.87;;;7.67;;
3867;SDS011;1949;48.152;11.528;2023-04-03T06:19:52;17.70;;;7.37;;
3867;SDS011;1949;48.152;11.528;2023-04-03T06:22:18;15.60;;;7.47;;
3867;SDS011;1949;48.152;11.528;2023-04-03T06:24:43;11.50;;;4.47;;
3867;SDS011;1949;48.152;11.528;2023-04-03T06:27:10;14.30;;;5.97;;
3867;SDS011;1949;48.152;11.528;2023-04-03T06:29:42;12.43;;;5.33;;
3867;SDS011;1949;48.152;11.528;2023-04-03T06:32:09;25.97;;;6.77;;
3867;SDS011;1949;48.152;11.528;2023-04-03T06:34:35;18.03;;;7.50;;
3867;SDS011;1949;48.152;11.528;2023-04-03T06:37:02;12.30;;;6.33;;
3867;SDS011;1949;48.152;11.528;2023-04-03T06:39:28;10.10;;;5.20;;
3867;SDS011;1949;48.152;11.528;2023-04-03T06:41:55;11.60;;;5.20;;
3867;SDS011;1949;48.152;11.528;2023-04-03T06:44:22;13.40;;;5.17;;
3867;SDS011;1949;48.152;11.528;2023-04-03T06:46:47;12.57;;;5.17;;
3867;SDS011;1949;48.152;11.528;2023-04-03T06:49:17;12.27;;;6.03;;
3867;SDS011;1949;48.152;11.528;2023-04-03T06:51:42;7.83;;;4.03;;
3867;SDS011;1949;48.152;11.528;2023-04-03T06:54:08;9.30;;;4.60;;
3867;SDS011;1949;48.152;11.528;2023-04-03T06:56:34;10.07;;;4.60;;
3867;SDS011;1949;48.152;11.528;2023-04-03T06:59:00;8.03;;;3.63;;
3867;SDS011;1949;48.152;11.528;2023-04-03T07:01:26;4.47;;;2.90;;
3867;SDS011;1949;48.152;11.528;2023-04-03T07:03:53;9.67;;;5.00;;
3867;SDS011;1949;48.152;11.528;2023-04-03T07:06:19;9.00;;;4.03;;
3867;SDS011;1949;48.152;11.528;2023-04-03T07:08:46;7.73;;;3.00;;
3867;SDS011;1949;48.152;11.528;2023-04-03T07:11:13;8.00;;;4.60;;
3867;SDS011;1949;48.152;11.528;2023-04-03T07:13:39;8.20;;;4.50;;
3867;SDS011;1949;48.152;11.528;2023-04-03T07:16:05;11.30;;;5.30;;
3867;SDS011;1949;48.152;11.528;2023-04-03T07:18:33;13.43;;;4.63;;
3867;SDS011;1949;48.152;11.528;2023-04-03T07:20:58;9.13;;;5.27;;
3867;SDS011;1949;48.152;11.528;2023-04-03T07:23:25;11.80;;;4.83;;
3867;SDS011;1949;48.152;11.528;2023-04-03T07:25:51;12.27;;;5.30;;
3867;SDS011;1949;48.152;11.528;2023-04-03T07:28:17;14.80;;;6.30;;
3867;SDS011;1949;48.152;11.528;2023-04-03T07:30:45;15.10;;;7.90;;
3867;SDS011;1949;48.152;11.528;2023-04-03T07:33:17;7.23;;;4.50;;
3867;SDS011;1949;48.152;11.528;2023-04-03T07:35:44;8.67;;;4.97;;
3867;SDS011;1949;48.152;11.528;2023-04-03T07:38:11;11.27;;;4.57;;
3867;SDS011;1949;48.152;11.528;2023-04-03T07:40:37;11.43;;;4.60;;
3867;SDS011;1949;48.152;11.528;2023-04-03T07:43:04;14.50;;;5.20;;
3867;SDS011;1949;48.152;11.528;2023-04-03T07:45:31;9.53;;;5.20;;
3867;SDS011;1949;48.152;11.528;2023-04-03T07:50:28;12.00;;;4.63;;
3867;SDS011;1949;48.152;11.528;2023-04-03T07:52:56;9.90;;;5.00;;
3867;SDS011;1949;48.152;11.528;2023-04-03T07:55:24;9.97;;;4.23;;
3867;SDS011;1949;48.152;11.528;2023-04-03T07:57:50;12.07;;;5.00;;
3867;SDS011;1949;48.152;11.528;2023-04-03T08:00:16;8.60;;;4.80;;
3867;SDS011;1949;48.152;11.528;2023-04-03T08:02:43;8.50;;;4.70;;
3867;SDS011;1949;48.152;11.528;2023-04-03T08:05:11;12.67;;;5.50;;
3867;SDS011;1949;48.152;11.528;2023-04-03T08:07:37;7.70;;;4.67;;
3867;SDS011;1949;48.152;11.528;2023-04-03T08:10:04;7.00;;;4.50;;
3867;SDS011;1949;48.152;11.528;2023-04-03T08:12:30;6.77;;;3.60;;
3867;SDS011;1949;48.152;11.528;2023-04-03T08:14:57;8.93;;;4.27;;
3867;SDS011;1949;48.152;11.528;2023-04-03T08:17:24;10.90;;;4.40;;
3867;SDS011;1949;48.152;11.528;2023-04-03T08:19:52;17.17;;;4.57;;
3867;SDS011;1949;48.152;11.528;2023-04-03T08:22:18;8.53;;;4.60;;
3867;SDS011;1949;48.152;11.528;2023-04-03T08:24:43;6.47;;;4.40;;
3867;SDS011;1949;48.152;11.528;2023-04-03T08:27:09;10.10;;;5.30;;
3867;SDS011;1949;48.152;11.528;2023-04-03T08:29:36;7.83;;;4.10;;
3867;SDS011;1949;48.152;11.528;2023-04-03T08:32:03;13.73;;;5.07;;
3867;SDS011;1949;48.152;11.528;2023-04-03T08:34:30;16.83;;;5.10;;
3867;SDS011;1949;48.152;11.528;2023-04-03T08:36:59;6.50;;;4.00;;
3867;SDS011;1949;48.152;11.528;2023-04-03T08:39:27;10.60;;;5.23;;
3867;SDS011;1949;48.152;11.528;2023-04-03T08:41:53;12.90;;;4.80;;
3867;SDS011;1949;48.152;11.528;2023-04-03T08:49:44;10.27;;;4.60;;
3867;SDS011;1949;48.152;11.528;2023-04-03T08:52:20;14.20;;;4.70;;
3867;SDS011;1949;48.152;11.528;2023-04-03T08:55:01;6.57;;;4.00;;
3867;SDS011;1949;48.152;11.528;2023-04-03T08:57:36;8.37;;;3.80;;
3867;SDS011;1949;48.152;11.528;2023-04-03T09:00:15;10.43;;;3.90;;
3867;SDS011;1949;48.152;11.528;2023-04-03T09:02:48;12.20;;;6.83;;
3867;SDS011;1949;48.152;11.528;2023-04-03T09:05:17;9.50;;;5.37;;
3867;SDS011;1949;48.152;11.528;2023-04-03T09:08:46;5.80;;;4.40;;
3867;SDS011;1949;48.152;11.528;2023-04-03T09:21:51;8.23;;;4.93;;
3867;SDS011;1949;48.152;11.528;2023-04-03T09:24:17;16.93;;;4.73;;
3867;SDS011;1949;48.152;11.528;2023-04-03T09:26:46;5.83;;;4.10;;
3867;SDS011;1949;48.152;11.528;2023-04-03T09:29:19;10.23;;;4.50;;
3867;SDS011;1949;48.152;11.528;2023-04-03T09:31:48;8.50;;;4.00;;
3867;SDS011;1949;48.152;11.528;2023-04-03T09:36:53;7.60;;;3.77;;
3867;SDS011;1949;48.152;11.528;2023-04-03T09:39:25;6.80;;;3.53;;
3867;SDS011;1949;48.152;11.528;2023-04-03T09:41:57;6.00;;;4.03;;
3867;SDS011;1949;48.152;11.528;2023-04-03T09:44:29;6.17;;;4.27;;
3867;SDS011;1949;48.152;11.528;2023-04-03T09:46:57;7.57;;;4.57;;
3867;SDS011;1949;48.152;11.528;2023-04-03T09:49:23;9.97;;;4.07;;
3867;SDS011;1949;48.152;11.528;2023-04-03T09:51:49;5.53;;;3.30;;
3867;SDS011;1949;48.152;11.528;2023-04-03T09:57:11;7.83;;;4.63;;
3867;SDS011;1949;48.152;11.528;2023-04-03T09:59:46;7.40;;;3.97;;
3867;SDS011;1949;48.152;11.528;2023-04-03T10:02:30;14.77;;;5.27;;
3867;SDS011;1949;48.152;11.528;2023-04-03T10:04:57;6.27;;;3.57;;
3867;SDS011;1949;48.152;11.528;2023-04-03T10:07:35;7.10;;;4.23;;
3867;SDS011;1949;48.152;11.528;2023-04-03T10:10:15;8.70;;;4.27;;
3867;SDS011;1949;48.152;11.528;2023-04-03T10:12:48;11.23;;;4.50;;
3867;SDS011;1949;48.152;11.528;2023-04-03T10:15:28;6.60;;;4.70;;
3867;SDS011;1949;48.152;11.528;2023-04-03T10:18:00;7.30;;;4.07;;
3867;SDS011;1949;48.152;11.528;2023-04-03T10:20:34;6.57;;;3.53;;
3867;SDS011;1949;48.152;11.528;2023-04-03T10:28:12;7.47;;;4.00;;
3867;SDS011;1949;48.152;11.528;2023-04-03T10:36:25;7.03;;;3.13;;
3867;SDS011;1949;48.152;11.528;2023-04-03T10:44:49;10.83;;;3.53;;
3867;SDS011;1949;48.152;11.528;2023-04-03T10:47:19;9.53;;;3.30;;
3867;SDS011;1949;48.152;11.528;2023-04-03T10:52:40;3.97;;;2.83;;
3867;SDS011;1949;48.152;11.528;2023-04-03T10:55:23;5.67;;;3.33;;
3867;SDS011;1949;48.152;11.528;2023-04-03T10:58:35;6.07;;;2.93;;
3867;SDS011;1949;48.152;11.528;2023-04-03T11:01:24;5.60;;;2.53;;
3867;SDS011;1949;48.152;11.528;2023-04-03T11:04:12;4.60;;;2.63;;
3867;SDS011;1949;48.152;11.528;2023-04-03T11:09:26;3.10;;;2.30;;
3867;SDS011;1949;48.152;11.528;2023-04-03T11:12:09;7.23;;;3.40;;
3867;SDS011;1949;48.152;11.528;2023-04-03T11:14:41;4.40;;;2.87;;
3867;SDS011;1949;48.152;11.528;2023-04-03T11:17:14;5.20;;;2.97;;
3867;SDS011;1949;48.152;11.528;2023-04-03T11:22:32;3.60;;;2.60;;
3867;SDS011;1949;48.152;11.528;2023-04-03T11:27:44;5.40;;;2.20;;
3867;SDS011;1949;48.152;11.528;2023-04-03T11:30:22;3.57;;;2.70;;
3867;SDS011;1949;48.152;11.528;2023-04-03T11:35:51;4.87;;;2.60;;
3867;SDS011;1949;48.152;11.528;2023-04-03T11:38:23;3.30;;;2.77;;
3867;SDS011;1949;48.152;11.528;2023-04-03T11:40:52;5.00;;;2.33;;
3867;SDS011;1949;48.152;11.528;2023-04-03T11:43:29;4.53;;;2.80;;
3867;SDS011;1949;48.152;11.528;2023-04-03T11:46:03;3.33;;;2.00;;
3867;SDS011;1949;48.152;11.528;2023-04-03T11:51:42;10.17;;;2.70;;
3867;SDS011;1949;48.152;11.528;2023-04-03T11:53:54;7.23;;;2.43;;
3867;SDS011;1949;48.152;11.528;2023-04-03T11:56:40;6.10;;;2.10;;
3867;SDS011;1949;48.152;11.528;2023-04-03T12:01:54;3.03;;;2.17;;
3867;SDS011;1949;48.152;11.528;2023-04-03T12:04:26;3.90;;;2.07;;
3867;SDS011;1949;48.152;11.528;2023-04-03T12:06:53;6.60;;;2.33;;
3867;SDS011;1949;48.152;11.528;2023-04-03T12:09:33;4.77;;;2.33;;
3867;SDS011;1949;48.152;11.528;2023-04-03T12:12:28;3.77;;;1.57;;
3867;SDS011;1949;48.152;11.528;2023-04-03T12:14:54;3.93;;;2.40;;
3867;SDS011;1949;48.152;11.528;2023-04-03T12:17:25;3.50;;;1.77;;
3867;SDS011;1949;48.152;11.528;2023-04-03T12:19:52;18.53;;;2.20;;
3867;SDS011;1949;48.152;11.528;2023-04-03T12:22:19;8.40;;;1.87;;
3867;SDS011;1949;48.152;11.528;2023-04-03T12:24:50;3.20;;;2.03;;
3867;SDS011;1949;48.152;11.528;2023-04-03T12:45:49;3.00;;;1.60;;
3867;SDS011;1949;48.152;11.528;2023-04-03T12:48:24;2.97;;;1.70;;
3867;SDS011;1949;48.152;11.528;2023-04-03T12:50:52;4.30;;;1.60;;
3867;SDS011;1949;48.152;11.528;2023-04-03T12:53:31;3.73;;;2.00;;
3867;SDS011;1949;48.152;11.528;2023-04-03T12:56:19;2.07;;;1.70;;
3867;SDS011;1949;48.152;11.528;2023-04-03T12:58:52;1.63;;;1.50;;
3867;SDS011;1949;48.152;11.528;2023-04-03T13:01:23;3.27;;;2.00;;
3867;SDS011;1949;48.152;11.528;2023-04-03T13:03:54;2.63;;;1.50;;
3867;SDS011;1949;48.152;11.528;2023-04-03T13:06:23;1.87;;;1.60;;
3867;SDS011;1949;48.152;11.528;2023-04-03T13:08:55;1.80;;;1.43;;
3867;SDS011;1949;48.152;11.528;2023-04-03T13:11:24;6.50;;;2.00;;
3867;SDS011;1949;48.152;11.528;2023-04-03T13:13:59;2.87;;;2.00;;
3867;SDS011;1949;48.152;11.528;2023-04-03T13:16:28;3.83;;;1.60;;
3867;SDS011;1949;48.152;11.528;2023-04-03T13:18:54;10.03;;;1.80;;
3867;SDS011;1949;48.152;11.528;2023-04-03T13:21:23;1.50;;;1.40;;
3867;SDS011;1949;48.152;11.528;2023-04-03T13:23:57;4.90;;;2.20;;
3867;SDS011;1949;48.152;11.528;2023-04-03T13:26:27;2.50;;;1.67;;
3867;SDS011;1949;48.152;11.528;2023-04-03T13:28:56;6.30;;;2.17;;
3867;SDS011;1949;48.152;11.528;2023-04-03T13:31:32;2.60;;;1.80;;
3867;SDS011;1949;48.152;11.528;2023-04-03T13:34:10;4.07;;;1.70;;
3867;SDS011;1949;48.152;11.528;2023-04-03T13:36:37;2.97;;;2.20;;
3867;SDS011;1949;48.152;11.528;2023-04-03T13:39:25;1.53;;;1.43;;
3867;SDS011;1949;48.152;11.528;2023-04-03T13:41:56;1.97;;;1.60;;
3867;SDS011;1949;48.152;11.528;2023-04-03T13:47:22;4.00;;;1.73;;
3867;SDS011;1949;48.152;11.528;2023-04-03T13:52:33;12.73;;;6.47;;
3867;SDS011;1949;48.152;11.528;2023-04-03T13:55:19;4.87;;;2.10;;
3867;SDS011;1949;48.152;11.528;2023-04-03T13:57:51;2.33;;;1.80;;
3867;SDS011;1949;48.152;11.528;2023-04-03T14:00:25;2.80;;;1.90;;
3867;SDS011;1949;48.152;11.528;2023-04-03T14:02:55;2.50;;;2.17;;
3867;SDS011;1949;48.152;11.528;2023-04-03T14:05:21;2.50;;;1.97;;
3867;SDS011;1949;48.152;11.528;2023-04-03T14:07:51;4.57;;;2.00;;
3867;SDS011;1949;48.152;11.528;2023-04-03T14:10:18;2.87;;;1.30;;
3867;SDS011;1949;48.152;11.528;2023-04-03T14:12:44;3.93;;;1.67;;
3867;SDS011;1949;48.152;11.528;2023-04-03T14:15:18;3.87;;;2.20;;
3867;SDS011;1949;48.152;11.528;2023-04-03T14:17:44;6.73;;;1.70;;
3867;SDS011;1949;48.152;11.528;2023-04-03T14:20:14;1.97;;;1.30;;
3867;SDS011;1949;48.152;11.528;2023-04-03T14:22:45;4.60;;;1.70;;
3867;SDS011;1949;48.152;11.528;2023-04-03T14:25:12;2.30;;;1.90;;
3867;SDS011;1949;48.152;11.528;2023-04-03T14:27:42;1.03;;;0.90;;
3867;SDS011;1949;48.152;11.528;2023-04-03T14:30:14;8.80;;;2.13;;
3867;SDS011;1949;48.152;11.528;2023-04-03T14:32:42;1.87;;;1.30;;
3867;SDS011;1949;48.152;11.528;2023-04-03T14:35:08;2.27;;;1.57;;
3867;SDS011;1949;48.152;11.528;2023-04-03T14:37:34;4.97;;;1.67;;
3867;SDS011;1949;48.152;11.528;2023-04-03T14:40:01;7.63;;;4.30;;
3867;SDS011;1949;48.152;11.528;2023-04-03T14:42:32;7.27;;;2.30;;
3867;SDS011;1949;48.152;11.528;2023-04-03T14:45:01;9.60;;;4.30;;
3867;SDS011;1949;48.152;11.528;2023-04-03T14:47:28;7.70;;;2.90;;
3867;SDS011;1949;48.152;11.528;2023-04-03T14:49:55;4.40;;;1.90;;
3867;SDS011;1949;48.152;11.528;2023-04-03T14:54:54;11.87;;;3.97;;
3867;SDS011;1949;48.152;11.528;2023-04-03T14:57:20;6.50;;;3.97;;
3867;SDS011;1949;48.152;11.528;2023-04-03T14:59:49;4.70;;;3.53;;
3867;SDS011;1949;48.152;11.528;2023-04-03T15:04:47;8.80;;;3.37;;
3867;SDS011;1949;48.152;11.528;2023-04-03T15:07:13;13.20;;;4.93;;
3867;SDS011;1949;48.152;11.528;2023-04-03T15:09:38;9.90;;;6.07;;
3867;SDS011;1949;48.152;11.528;2023-04-03T15:12:07;13.17;;;6.83;;
3867;SDS011;1949;48.152;11.528;2023-04-03T15:14:34;11.43;;;5.40;;
3867;SDS011;1949;48.152;11.528;2023-04-03T15:16:59;21.60;;;8.67;;
3867;SDS011;1949;48.152;11.528;2023-04-03T15:19:25;20.33;;;10.10;;
3867;SDS011;1949;48.152;11.528;2023-04-03T15:21:51;31.30;;;12.13;;
3867;SDS011;1949;48.152;11.528;2023-04-03T15:24:16;32.33;;;13.83;;
3867;SDS011;1949;48.152;11.528;2023-04-03T15:26:42;20.43;;;10.57;;
3867;SDS011;1949;48.152;11.528;2023-04-03T15:29:08;16.70;;;8.07;;
3867;SDS011;1949;48.152;11.528;2023-04-03T15:31:34;21.90;;;8.93;;
3867;SDS011;1949;48.152;11.528;2023-04-03T15:34:00;31.97;;;8.77;;
3867;SDS011;1949;48.152;11.528;2023-04-03T15:36:25;18.37;;;8.80;;
3867;SDS011;1949;48.152;11.528;2023-04-03T15:38:51;13.50;;;7.77;;
3867;SDS011;1949;48.152;11.528;2023-04-03T15:41:18;17.87;;;8.53;;
3867;SDS011;1949;48.152;11.528;2023-04-03T15:43:44;20.53;;;9.30;;
3867;SDS011;1949;48.152;11.528;2023-04-03T15:46:09;23.30;;;10.73;;
3867;SDS011;1949;48.152;11.528;2023-04-03T15:48:35;12.17;;;6.37;;
3867;SDS011;1949;48.152;11.528;2023-04-03T15:51:01;11.40;;;5.00;;
3867;SDS011;1949;48.152;11.528;2023-04-03T15:53:27;15.13;;;7.00;;
3867;SDS011;1949;48.152;11.528;2023-04-03T15:55:53;15.67;;;7.57;;
3867;SDS011;1949;48.152;11.528;2023-04-03T15:58:19;10.57;;;5.20;;
3867;SDS011;1949;48.152;11.528;2023-04-03T16:00:45;14.33;;;7.67;;
3867;SDS011;1949;48.152;11.528;2023-04-03T16:03:14;12.07;;;5.90;;
3867;SDS011;1949;48.152;11.528;2023-04-03T16:05:42;14.63;;;6.70;;
3867;SDS011;1949;48.152;11.528;2023-04-03T16:08:08;20.90;;;9.30;;
3867;SDS011;1949;48.152;11.528;2023-04-03T16:10:35;9.70;;;5.07;;
3867;SDS011;1949;48.152;11.528;2023-04-03T16:13:02;24.10;;;10.90;;
3867;SDS011;1949;48.152;11.528;2023-04-03T16:15:28;23.27;;;9.40;;
3867;SDS011;1949;48.152;11.528;2023-04-03T16:17:56;30.03;;;14.20;;
3867;SDS011;1949;48.152;11.528;2023-04-03T16:20:23;36.53;;;16.20;;
3867;SDS011;1949;48.152;11.528;2023-04-03T16:22:49;26.90;;;12.90;;
3867;SDS011;1949;48.152;11.528;2023-04-03T16:25:16;26.90;;;11.50;;
3867;SDS011;1949;48.152;11.528;2023-04-03T16:27:42;32.17;;;13.30;;
3867;SDS011;1949;48.152;11.528;2023-04-03T16:30:08;23.63;;;13.33;;
3867;SDS011;1949;48.152;11.528;2023-04-03T16:32:34;32.40;;;14.37;;
3867;SDS011;1949;48.152;11.528;2023-04-03T16:35:02;30.53;;;13.93;;
3867;SDS011;1949;48.152;11.528;2023-04-03T16:37:28;16.97;;;7.30;;
3867;SDS011;1949;48.152;11.528;2023-04-03T16:39:53;16.03;;;7.40;;
3867;SDS011;1949;48.152;11.528;2023-04-03T16:42:19;19.27;;;8.93;;
3867;SDS011;1949;48.152;11.528;2023-04-03T16:44:45;27.97;;;12.37;;
3867;SDS011;1949;48.152;11.528;2023-04-03T16:47:11;21.40;;;9.53;;
3867;SDS011;1949;48.152;11.528;2023-04-03T16:49:38;25.80;;;12.50;;